createdAt,value
2018-12-19T00:01:13.147Z,30.63
2018-12-19T00:03:41.425Z,29.27
2018-12-19T00:06:09.710Z,34.43
2018-12-19T00:08:37.894Z,34.03
2018-12-19T00:11:06.172Z,32.60
2018-12-19T00:13:34.651Z,30.83
2018-12-19T00:16:03.035Z,33.90
2018-12-19T00:18:31.286Z,33.70
2018-12-19T00:20:59.551Z,30.88
2018-12-19T00:23:27.765Z,31.02
2018-12-19T00:25:55.989Z,34.33
2018-12-19T00:28:24.239Z,30.77
2018-12-19T00:30:52.412Z,34.87
2018-12-19T00:33:20.659Z,33.05
2018-12-19T00:35:48.864Z,34.35
2018-12-19T00:38:17.208Z,35.52
2018-12-19T00:40:45.504Z,36.33
2018-12-19T00:43:13.774Z,37.93
2018-12-19T00:45:41.981Z,29.40
2018-12-19T00:48:10.336Z,30.32
2018-12-19T00:50:38.643Z,31.48
2018-12-19T00:53:07.015Z,31.27
2018-12-19T00:55:35.460Z,32.85
2018-12-19T00:58:03.830Z,32.88
2018-12-19T01:00:33.888Z,33.50
2018-12-19T01:03:02.397Z,31.27
2018-12-19T01:05:30.829Z,35.55
2018-12-19T01:07:59.213Z,34.48
2018-12-19T01:10:27.480Z,31.83
2018-12-19T01:12:55.717Z,33.20
2018-12-19T01:15:23.956Z,33.03
2018-12-19T01:17:52.163Z,32.40
2018-12-19T01:20:20.404Z,31.23
2018-12-19T01:22:48.653Z,35.43
2018-12-19T01:25:16.919Z,30.90
2018-12-19T01:27:45.984Z,31.03
2018-12-19T01:30:14.200Z,30.97
2018-12-19T01:32:42.453Z,29.77
2018-12-19T01:35:11.172Z,32.58
2018-12-19T01:37:39.381Z,30.23
2018-12-19T01:40:07.729Z,34.53
2018-12-19T01:42:36.025Z,35.33
2018-12-19T01:45:06.134Z,36.68
2018-12-19T01:47:34.410Z,35.48
2018-12-19T01:50:02.605Z,33.10
2018-12-19T01:52:30.837Z,30.02
2018-12-19T01:54:59.068Z,32.00
2018-12-19T01:57:27.345Z,31.17
2018-12-19T01:59:55.567Z,33.15
2018-12-19T02:02:24.055Z,29.98
2018-12-19T02:04:52.276Z,31.95
2018-12-19T02:07:20.871Z,30.00
2018-12-19T02:09:49.256Z,28.95
2018-12-19T02:12:17.503Z,33.75
2018-12-19T02:14:45.818Z,29.70
2018-12-19T02:17:36.960Z,32.95
2018-12-19T02:20:05.594Z,30.75
2018-12-19T02:22:33.899Z,32.23
2018-12-19T02:25:02.300Z,29.82
2018-12-19T02:27:30.557Z,27.30
2018-12-19T02:29:58.825Z,27.40
2018-12-19T02:32:27.142Z,29.50
2018-12-19T02:34:55.348Z,25.15
2018-12-19T02:37:23.612Z,29.40
2018-12-19T02:39:51.841Z,32.08
2018-12-19T02:42:20.135Z,30.75
2018-12-19T02:44:48.362Z,28.25
2018-12-19T02:47:16.618Z,24.25
2018-12-19T02:49:44.878Z,23.70
2018-12-19T02:52:13.241Z,26.15
2018-12-19T02:54:41.619Z,23.87
2018-12-19T02:57:11.566Z,24.45
2018-12-19T02:59:40.231Z,24.07
2018-12-19T03:02:08.415Z,24.10
2018-12-19T03:04:36.887Z,25.95
2018-12-19T03:07:05.095Z,26.50
2018-12-19T03:09:33.616Z,26.62
2018-12-19T03:12:01.998Z,29.18
2018-12-19T03:14:30.201Z,23.25
2018-12-19T03:16:58.399Z,26.25
2018-12-19T03:19:26.750Z,25.05
2018-12-19T03:21:54.954Z,24.20
2018-12-19T03:24:23.184Z,24.75
2018-12-19T03:26:51.479Z,27.42
2018-12-19T03:29:19.768Z,25.77
2018-12-19T03:31:48.062Z,30.90
2018-12-19T03:34:16.273Z,27.42
2018-12-19T03:36:44.524Z,26.23
2018-12-19T03:39:12.746Z,30.27
2018-12-19T03:41:41.395Z,24.65
2018-12-19T03:44:09.775Z,23.40
2018-12-19T03:46:38.023Z,24.43
2018-12-19T03:49:06.232Z,24.27
2018-12-19T03:51:34.423Z,28.12
2018-12-19T03:54:02.617Z,22.75
2018-12-19T03:56:30.894Z,26.57
2018-12-19T03:58:59.087Z,25.77
2018-12-19T04:01:27.363Z,24.52
2018-12-19T04:03:55.690Z,24.98
2018-12-19T04:06:23.940Z,24.47
2018-12-19T04:08:52.214Z,25.30
2018-12-19T04:11:20.433Z,28.83
2018-12-19T04:13:48.624Z,25.80
2018-12-19T04:16:16.844Z,24.55
2018-12-19T04:18:45.119Z,26.93
2018-12-19T04:21:13.333Z,25.97
2018-12-19T04:23:41.541Z,23.77
2018-12-19T04:26:09.773Z,25.70
2018-12-19T04:28:38.194Z,25.57
2018-12-19T04:31:06.469Z,26.35
2018-12-19T04:33:34.673Z,27.58
2018-12-19T04:36:03.223Z,26.85
2018-12-19T04:38:31.622Z,26.87
2018-12-19T04:41:00.299Z,24.43
2018-12-19T04:43:28.507Z,26.73
2018-12-19T04:45:56.960Z,27.42
2018-12-19T04:48:25.228Z,29.35
2018-12-19T04:50:53.451Z,26.45
2018-12-19T04:53:22.065Z,26.07
2018-12-19T04:55:50.423Z,27.65
2018-12-19T04:58:18.659Z,27.58
2018-12-19T05:00:46.931Z,28.87
2018-12-19T05:03:15.157Z,29.98
2018-12-19T05:05:43.374Z,26.45
2018-12-19T05:08:11.581Z,29.48
2018-12-19T05:10:39.831Z,28.23
2018-12-19T05:13:08.044Z,30.90
2018-12-19T05:15:37.899Z,30.08
2018-12-19T05:18:06.371Z,31.10
2018-12-19T05:20:34.542Z,30.30
2018-12-19T05:23:02.803Z,31.80
2018-12-19T05:25:31.009Z,31.52
2018-12-19T05:27:59.397Z,30.55
2018-12-19T05:30:27.600Z,27.65
2018-12-19T05:32:55.969Z,33.05
2018-12-19T05:35:24.178Z,29.37
2018-12-19T05:37:52.422Z,32.30
2018-12-19T05:40:20.883Z,31.68
2018-12-19T05:42:49.124Z,27.73
2018-12-19T05:45:17.420Z,32.53
2018-12-19T05:47:45.640Z,31.45
2018-12-19T05:50:15.074Z,30.52
2018-12-19T05:52:43.310Z,28.32
2018-12-19T05:55:11.571Z,33.15
2018-12-19T05:57:39.928Z,32.35
2018-12-19T06:00:08.439Z,29.27
2018-12-19T06:02:36.714Z,34.15
2018-12-19T06:05:05.518Z,30.68
2018-12-19T06:07:33.779Z,30.80
2018-12-19T06:10:02.036Z,32.45
2018-12-19T06:12:30.232Z,31.55
2018-12-19T06:14:58.585Z,35.20
2018-12-19T06:17:26.838Z,34.40
2018-12-19T06:19:55.065Z,34.03
2018-12-19T06:22:23.301Z,32.30
2018-12-19T06:24:51.602Z,34.73
2018-12-19T06:27:19.795Z,33.40
2018-12-19T06:29:48.148Z,31.37
2018-12-19T06:32:16.380Z,33.30
2018-12-19T06:34:44.620Z,30.40
2018-12-19T06:37:12.908Z,31.25
2018-12-19T06:39:41.123Z,33.28
2018-12-19T06:42:09.326Z,30.65
2018-12-19T06:44:37.557Z,31.62
2018-12-19T06:47:05.798Z,28.85
2018-12-19T06:49:34.262Z,29.40
2018-12-19T06:52:02.654Z,27.48
2018-12-19T06:54:30.849Z,30.20
2018-12-19T06:56:59.086Z,31.33
2018-12-19T06:59:27.592Z,34.50
2018-12-19T07:01:55.832Z,32.78
2018-12-19T07:04:24.229Z,34.03
2018-12-19T07:06:52.611Z,35.40
2018-12-19T07:09:20.997Z,30.85
2018-12-19T07:11:49.371Z,32.33
2018-12-19T07:14:17.655Z,43.70
2018-12-19T07:16:46.132Z,27.58
2018-12-19T07:19:14.406Z,33.78
2018-12-19T07:21:42.588Z,33.10
2018-12-19T07:24:10.962Z,35.65
2018-12-19T07:26:39.152Z,33.10
2018-12-19T07:29:07.402Z,31.90
2018-12-19T07:31:35.714Z,32.33
2018-12-19T07:34:03.954Z,32.93
2018-12-19T07:36:32.216Z,34.38
2018-12-19T07:39:00.431Z,31.52
2018-12-19T07:41:28.781Z,30.45
2018-12-19T07:43:57.178Z,32.88
2018-12-19T07:46:25.393Z,33.38
2018-12-19T07:48:53.714Z,32.33
2018-12-19T07:51:21.921Z,34.88
2018-12-19T07:53:50.238Z,33.05
2018-12-19T07:56:20.420Z,33.10
2018-12-19T07:58:48.851Z,32.93
2018-12-19T08:01:17.461Z,34.80
2018-12-19T08:03:45.787Z,38.28
2018-12-19T08:06:14.026Z,29.95
2018-12-19T08:08:42.219Z,35.35
2018-12-19T08:11:10.579Z,35.03
2018-12-19T08:13:38.728Z,31.95
2018-12-19T08:16:07.022Z,29.02
2018-12-19T08:18:35.231Z,34.67
2018-12-19T08:21:03.479Z,31.30
2018-12-19T08:23:31.848Z,31.00
2018-12-19T08:26:00.059Z,36.53
2018-12-19T08:28:28.261Z,32.50
2018-12-19T08:30:56.744Z,31.02
2018-12-19T08:33:24.953Z,28.65
2018-12-19T08:35:53.267Z,30.05
2018-12-19T08:38:21.512Z,31.45
2018-12-19T08:40:49.826Z,30.82
2018-12-19T08:43:18.073Z,28.60
2018-12-19T08:45:46.664Z,29.15
2018-12-19T08:48:15.129Z,30.48
2018-12-19T08:50:43.341Z,31.93
2018-12-19T08:53:11.624Z,36.80
2018-12-19T08:55:39.945Z,32.75
2018-12-19T08:58:08.237Z,32.00
2018-12-19T09:00:36.624Z,36.83
2018-12-19T09:03:04.871Z,34.50
2018-12-19T09:05:33.237Z,36.00
2018-12-19T09:08:01.549Z,33.48
2018-12-19T09:10:29.776Z,28.75
2018-12-19T09:12:58.013Z,31.37
2018-12-19T09:15:31.885Z,33.73
2018-12-19T09:18:00.293Z,37.00
2018-12-19T09:20:28.476Z,31.60
2018-12-19T09:22:56.728Z,34.03
2018-12-19T09:25:26.889Z,32.93
2018-12-19T09:27:55.345Z,31.48
2018-12-19T09:30:23.623Z,36.23
2018-12-19T09:32:52.626Z,35.23
2018-12-19T09:35:21.006Z,35.65
2018-12-19T09:37:49.270Z,35.13
2018-12-19T09:40:17.515Z,35.78
2018-12-19T09:42:45.731Z,32.43
2018-12-19T09:45:14.074Z,34.30
2018-12-19T09:47:42.451Z,32.20
2018-12-19T09:50:10.963Z,31.90
2018-12-19T09:52:39.131Z,31.42
2018-12-19T09:55:07.385Z,30.97
2018-12-19T09:57:36.001Z,33.35
2018-12-19T10:00:06.964Z,33.23
2018-12-19T10:02:35.254Z,32.05
2018-12-19T10:05:03.901Z,29.92
2018-12-19T10:07:32.055Z,30.73
2018-12-19T10:10:00.344Z,30.45
2018-12-19T10:12:28.612Z,31.40
2018-12-19T10:14:56.812Z,29.52
2018-12-19T10:17:25.058Z,29.90
2018-12-19T10:19:53.271Z,30.97
2018-12-19T10:22:27.198Z,29.05
2018-12-19T10:25:01.259Z,28.62
2018-12-19T10:27:29.656Z,30.70
2018-12-19T10:29:57.868Z,31.90
2018-12-19T10:32:28.021Z,29.75
2018-12-19T10:34:56.322Z,29.82
2018-12-19T10:37:26.238Z,29.57
2018-12-19T10:39:55.035Z,29.40
2018-12-19T10:42:23.247Z,30.57
2018-12-19T10:44:51.482Z,28.45
2018-12-19T10:47:19.840Z,29.75
2018-12-19T10:49:48.066Z,29.98
2018-12-19T10:52:16.337Z,28.20
2018-12-19T10:54:44.584Z,30.02
2018-12-19T10:57:13.813Z,26.12
2018-12-19T10:59:42.029Z,28.25
2018-12-19T11:02:10.355Z,26.60
2018-12-19T11:04:38.555Z,28.30
2018-12-19T11:07:06.826Z,28.85
2018-12-19T11:09:35.066Z,30.08
2018-12-19T11:12:03.401Z,29.77
2018-12-19T11:14:31.927Z,29.77
2018-12-19T11:17:00.408Z,30.20
2018-12-19T11:19:28.656Z,29.97
2018-12-19T11:21:56.982Z,30.88
2018-12-19T11:24:25.215Z,32.78
2018-12-19T11:26:53.721Z,30.97
2018-12-19T11:29:21.944Z,29.73
2018-12-19T11:31:50.115Z,29.17
2018-12-19T11:34:18.374Z,27.17
2018-12-19T11:36:46.591Z,29.70
2018-12-19T11:39:14.760Z,25.33
2018-12-19T11:41:43.004Z,27.73
2018-12-19T11:44:11.217Z,29.10
2018-12-19T11:46:39.415Z,28.13
2018-12-19T11:49:07.729Z,30.10
2018-12-19T11:51:35.914Z,28.43
2018-12-19T11:54:04.438Z,25.12
2018-12-19T11:56:32.619Z,29.80
2018-12-19T11:59:00.896Z,28.03
2018-12-19T12:01:29.068Z,28.70
2018-12-19T12:03:57.284Z,31.87
2018-12-19T12:06:25.483Z,29.10
2018-12-19T12:08:54.017Z,29.23
2018-12-19T12:11:22.293Z,27.57
2018-12-19T12:13:50.426Z,28.27
2018-12-19T12:16:18.655Z,26.97
2018-12-19T12:18:46.829Z,27.17
2018-12-19T12:21:15.032Z,29.45
2018-12-19T12:23:47.342Z,26.10
2018-12-19T12:26:13.551Z,27.13
2018-12-19T12:28:41.719Z,26.90
2018-12-19T12:31:10.032Z,28.60
2018-12-19T12:33:38.185Z,26.53
2018-12-19T12:36:06.664Z,28.27
2018-12-19T12:38:34.989Z,25.47
2018-12-19T12:41:03.227Z,26.00
2018-12-19T12:43:31.425Z,29.30
2018-12-19T12:45:59.634Z,31.03
2018-12-19T12:48:27.907Z,31.55
2018-12-19T12:50:56.099Z,27.90
2018-12-19T12:53:24.438Z,31.93
2018-12-19T12:55:53.351Z,28.73
2018-12-19T12:58:21.542Z,28.53
2018-12-19T13:00:49.874Z,30.80
2018-12-19T13:03:18.069Z,29.30
2018-12-19T13:05:46.360Z,30.40
2018-12-19T13:08:14.574Z,30.60
2018-12-19T13:10:42.914Z,25.73
2018-12-19T13:13:11.117Z,33.63
2018-12-19T13:15:41.128Z,34.27
2018-12-19T13:18:09.347Z,29.27
2018-12-19T13:20:37.558Z,28.87
2018-12-19T13:23:05.804Z,24.83
2018-12-19T13:25:34.164Z,33.18
2018-12-19T13:28:02.756Z,27.93
2018-12-19T13:30:30.965Z,33.80
2018-12-19T13:32:59.182Z,28.60
2018-12-19T13:35:27.428Z,28.30
2018-12-19T13:37:55.653Z,30.30
2018-12-19T13:40:23.828Z,32.37
2018-12-19T13:42:52.121Z,26.93
2018-12-19T13:45:20.319Z,28.97
2018-12-19T13:47:48.687Z,27.43
2018-12-19T13:50:16.850Z,31.37
2018-12-19T13:52:45.122Z,30.43
2018-12-19T13:55:13.458Z,28.63
2018-12-19T13:57:41.639Z,32.40
2018-12-19T14:00:10.159Z,36.17
2018-12-19T14:02:38.891Z,28.53
2018-12-19T14:05:07.968Z,29.70
2018-12-19T14:07:36.165Z,35.97
2018-12-19T14:10:05.445Z,33.57
2018-12-19T14:12:33.694Z,35.77
2018-12-19T14:15:01.922Z,29.53
2018-12-19T14:17:30.111Z,31.27
2018-12-19T14:19:58.539Z,33.87
2018-12-19T14:22:26.696Z,29.10
2018-12-19T14:24:54.922Z,28.33
2018-12-19T14:27:23.115Z,32.63
2018-12-19T14:29:51.423Z,30.33
2018-12-19T14:32:19.630Z,37.67
2018-12-19T14:34:47.848Z,31.80
2018-12-19T14:37:16.368Z,32.10
2018-12-19T14:39:44.619Z,33.73
2018-12-19T14:42:18.894Z,36.33
2018-12-19T14:44:43.341Z,38.57
2018-12-19T14:47:11.646Z,36.37
2018-12-19T14:49:40.098Z,34.70
2018-12-19T14:52:08.345Z,35.93
2018-12-19T14:54:36.617Z,36.30
2018-12-19T14:57:05.937Z,36.30
2018-12-19T14:59:34.343Z,37.43
2018-12-19T15:02:02.594Z,35.03
2018-12-19T15:04:30.769Z,35.70
2018-12-19T15:06:58.944Z,43.23
2018-12-19T15:09:27.207Z,37.20
2018-12-19T15:11:56.987Z,45.87
2018-12-19T15:14:25.263Z,40.03
2018-12-19T15:16:53.425Z,40.40
2018-12-19T15:19:21.668Z,43.90
2018-12-19T15:21:49.839Z,43.57
2018-12-19T15:24:18.067Z,45.73
2018-12-19T15:26:46.405Z,48.60
2018-12-19T15:29:14.636Z,49.70
2018-12-19T15:31:42.873Z,49.60
2018-12-19T15:34:11.115Z,48.13
2018-12-19T15:36:39.512Z,48.60
2018-12-19T15:39:07.960Z,59.67
2018-12-19T15:41:36.157Z,50.87
2018-12-19T15:44:04.442Z,58.87
2018-12-19T15:46:32.677Z,52.07
2018-12-19T15:49:00.855Z,50.63
2018-12-19T15:51:29.111Z,58.17
2018-12-19T15:53:57.351Z,62.53
2018-12-19T15:56:25.739Z,59.93
2018-12-19T15:58:53.968Z,75.37
2018-12-19T16:01:22.156Z,55.23
2018-12-19T16:03:50.330Z,59.60
2018-12-19T16:06:18.526Z,57.33
2018-12-19T16:08:46.665Z,62.80
2018-12-19T16:11:14.965Z,61.27
2018-12-19T16:13:43.350Z,55.20
2018-12-19T16:16:11.567Z,72.73
2018-12-19T16:18:39.904Z,60.70
2018-12-19T16:21:08.115Z,66.40
2018-12-19T16:23:36.375Z,61.77
2018-12-19T16:26:04.888Z,66.87
2018-12-19T16:28:33.069Z,60.90
2018-12-19T16:31:01.286Z,65.07
2018-12-19T16:33:29.544Z,63.47
2018-12-19T16:35:57.713Z,64.13
2018-12-19T16:38:25.882Z,58.50
2018-12-19T16:40:54.061Z,59.80
2018-12-19T16:43:22.275Z,63.97
2018-12-19T16:45:50.500Z,63.90
2018-12-19T16:48:18.837Z,65.20
2018-12-19T16:50:47.072Z,61.17
2018-12-19T16:53:15.369Z,77.50
2018-12-19T16:55:43.658Z,67.47
2018-12-19T16:58:11.840Z,68.87
2018-12-19T17:00:40.160Z,79.50
2018-12-19T17:03:08.429Z,71.47
2018-12-19T17:05:36.662Z,63.77
2018-12-19T17:08:04.907Z,59.23
2018-12-19T17:10:35.126Z,58.13
2018-12-19T17:13:03.644Z,60.83
2018-12-19T17:15:31.917Z,59.73
2018-12-19T17:18:00.113Z,61.03
2018-12-19T17:20:28.348Z,55.73
2018-12-19T17:22:56.514Z,56.60
2018-12-19T17:25:24.694Z,61.73
2018-12-19T17:27:53.012Z,52.80
2018-12-19T17:30:21.456Z,57.33
2018-12-19T17:32:49.631Z,59.97
2018-12-19T17:35:17.932Z,60.83
2018-12-19T17:37:46.108Z,55.00
2018-12-19T17:40:14.269Z,62.07
2018-12-19T17:42:42.679Z,65.57
2018-12-19T17:45:11.105Z,65.27
2018-12-19T17:47:39.427Z,64.20
2018-12-19T17:50:07.700Z,62.20
2018-12-19T17:52:35.920Z,63.67
2018-12-19T17:55:04.787Z,60.40
2018-12-19T17:57:33.026Z,59.93
2018-12-19T18:00:01.295Z,76.93
2018-12-19T18:02:29.548Z,63.83
2018-12-19T18:04:57.863Z,72.57
2018-12-19T18:07:26.116Z,58.40
2018-12-19T18:09:54.257Z,67.40
2018-12-19T18:12:22.468Z,57.63
2018-12-19T18:14:50.671Z,83.53
2018-12-19T18:17:18.964Z,73.43
2018-12-19T18:19:47.217Z,67.83
2018-12-19T18:22:16.265Z,73.53
2018-12-19T18:24:44.470Z,80.60
2018-12-19T18:27:12.763Z,70.17
2018-12-19T18:29:41.250Z,68.13
2018-12-19T18:32:09.408Z,78.67
2018-12-19T18:34:37.603Z,80.23
2018-12-19T18:37:05.815Z,83.93
2018-12-19T18:39:34.014Z,81.03
2018-12-19T18:42:02.320Z,86.03
2018-12-19T18:44:30.536Z,87.10
2018-12-19T18:46:58.747Z,76.70
2018-12-19T18:49:26.962Z,76.13
2018-12-19T18:51:55.213Z,66.13
2018-12-19T18:54:23.528Z,69.57
2018-12-19T18:56:51.712Z,68.57
2018-12-19T18:59:20.096Z,72.13
2018-12-19T19:01:48.636Z,67.27
2018-12-19T19:04:16.910Z,74.27
2018-12-19T19:06:45.178Z,70.07
2018-12-19T19:09:13.441Z,67.77
2018-12-19T19:11:41.645Z,61.33
2018-12-19T19:14:09.843Z,53.50
2018-12-19T19:16:38.035Z,55.83
2018-12-19T19:19:06.226Z,52.40
2018-12-19T19:21:34.422Z,54.53
2018-12-19T19:24:02.707Z,53.93
2018-12-19T19:26:30.939Z,51.97
2018-12-19T19:28:59.277Z,51.33
2018-12-19T19:31:27.523Z,55.80
2018-12-19T19:33:55.711Z,44.00
2018-12-19T19:36:24.006Z,48.90
2018-12-19T19:38:52.378Z,48.43
2018-12-19T19:41:20.591Z,45.87
2018-12-19T19:43:48.771Z,53.80
2018-12-19T19:46:17.044Z,46.40
2018-12-19T19:48:45.282Z,48.07
2018-12-19T19:51:16.877Z,49.00
2018-12-19T19:53:43.901Z,48.33
2018-12-19T19:56:12.158Z,45.27
2018-12-19T19:58:40.365Z,45.00
2018-12-19T20:01:08.556Z,41.10
2018-12-19T20:03:37.358Z,48.73
2018-12-19T20:06:05.540Z,45.10
2018-12-19T20:08:33.735Z,38.77
2018-12-19T20:11:01.975Z,43.37
2018-12-19T20:13:33.286Z,63.50
2018-12-19T20:16:00.634Z,54.07
2018-12-19T20:18:28.832Z,62.77
2018-12-19T20:20:57.074Z,56.67
2018-12-19T20:23:25.232Z,79.17
2018-12-19T20:25:53.536Z,44.30
2018-12-19T20:28:21.789Z,88.57
2018-12-19T20:30:50.089Z,80.70
2018-12-19T20:33:18.276Z,51.50
2018-12-19T20:35:46.504Z,45.40
2018-12-19T20:38:14.759Z,42.40
2018-12-19T20:40:42.986Z,43.73
2018-12-19T20:43:11.135Z,38.17
2018-12-19T20:45:39.318Z,43.07
2018-12-19T20:48:07.625Z,37.80
2018-12-19T20:50:35.893Z,37.97
2018-12-19T20:53:04.137Z,34.93
2018-12-19T20:55:32.313Z,37.83
2018-12-19T20:58:00.499Z,35.47
2018-12-19T21:00:28.821Z,36.40
2018-12-19T21:02:57.019Z,38.00
2018-12-19T21:05:25.260Z,40.10
2018-12-19T21:07:53.522Z,36.00
2018-12-19T21:10:21.806Z,36.20
2018-12-19T21:12:49.974Z,40.80
2018-12-19T21:15:18.227Z,41.60
2018-12-19T21:17:52.453Z,37.20
2018-12-19T21:20:20.764Z,36.33
2018-12-19T21:22:49.849Z,45.60
2018-12-19T21:25:18.144Z,36.30
2018-12-19T21:27:46.344Z,38.57
2018-12-19T21:30:14.672Z,37.20
2018-12-19T21:32:43.559Z,39.90
2018-12-19T21:35:12.182Z,38.93
2018-12-19T21:37:40.380Z,41.50
2018-12-19T21:40:09.094Z,46.33
2018-12-19T21:42:37.504Z,45.60
2018-12-19T21:45:06.501Z,53.33
2018-12-19T21:47:34.677Z,49.03
2018-12-19T21:50:03.033Z,39.27
2018-12-19T21:52:31.281Z,46.80
2018-12-19T21:54:59.760Z,43.23
2018-12-19T21:57:28.123Z,42.60
2018-12-19T21:59:56.320Z,44.17
2018-12-19T22:02:24.517Z,53.93
2018-12-19T22:04:52.904Z,52.47
2018-12-19T22:07:21.234Z,49.03
2018-12-19T22:09:49.651Z,56.40
2018-12-19T22:12:17.954Z,42.73
2018-12-19T22:14:46.274Z,43.67
2018-12-19T22:17:20.094Z,48.60
2018-12-19T22:19:48.297Z,42.17
2018-12-19T22:22:16.662Z,37.50
2018-12-19T22:24:44.886Z,45.00
2018-12-19T22:27:13.223Z,45.67
2018-12-19T22:29:41.576Z,59.27
2018-12-19T22:32:09.998Z,64.57
2018-12-19T22:34:38.278Z,72.03
2018-12-19T22:37:06.520Z,74.20
2018-12-19T22:39:34.788Z,70.80
2018-12-19T22:42:03.219Z,75.37
2018-12-19T22:44:31.558Z,84.37
2018-12-19T22:46:59.804Z,82.93
2018-12-19T22:49:28.155Z,61.00
2018-12-19T22:51:56.408Z,75.63
2018-12-19T22:54:24.636Z,81.27
2018-12-19T22:56:52.952Z,68.83
2018-12-19T22:59:21.469Z,61.67
2018-12-19T23:01:55.499Z,56.87
2018-12-19T23:04:25.533Z,54.97
2018-12-19T23:06:56.107Z,52.33
2018-12-19T23:09:24.396Z,53.10
2018-12-19T23:11:52.650Z,40.07
2018-12-19T23:14:21.079Z,42.20
2018-12-19T23:16:49.495Z,41.00
2018-12-19T23:19:17.802Z,44.70
2018-12-19T23:21:46.068Z,42.77
2018-12-19T23:24:14.276Z,40.83
2018-12-19T23:26:42.594Z,44.83
2018-12-19T23:29:10.906Z,37.63
2018-12-19T23:31:39.401Z,38.90
2018-12-19T23:34:07.557Z,42.20
2018-12-19T23:36:35.731Z,39.83
2018-12-19T23:39:06.271Z,40.53
2018-12-19T23:41:34.617Z,38.40
2018-12-19T23:44:02.790Z,38.13
2018-12-19T23:46:33.067Z,36.67
2018-12-19T23:49:01.233Z,39.53
2018-12-19T23:51:29.380Z,44.80
2018-12-19T23:53:57.687Z,41.00
2018-12-19T23:56:26.250Z,38.90
2018-12-19T23:58:54.806Z,42.23
